createdAt,value
2022-09-20T00:01:32.035Z,0.95
2022-09-20T00:04:00.877Z,1.00
2022-09-20T00:06:29.983Z,1.00
2022-09-20T00:08:57.417Z,1.05
2022-09-20T00:11:27.570Z,1.20
2022-09-20T00:13:56.322Z,0.90
2022-09-20T00:16:32.452Z,1.20
2022-09-20T00:19:01.215Z,1.10
2022-09-20T00:21:30.244Z,1.27
2022-09-20T00:23:58.235Z,0.98
2022-09-20T00:26:26.441Z,1.40
2022-09-20T00:28:53.709Z,1.10
2022-09-20T00:31:20.958Z,1.23
2022-09-20T00:34:06.273Z,1.17
2022-09-20T00:36:33.114Z,1.08
2022-09-20T00:39:02.243Z,1.20
2022-09-20T00:41:30.663Z,1.45
2022-09-20T00:43:57.401Z,1.25
2022-09-20T00:46:41.707Z,1.00
2022-09-20T00:49:16.804Z,1.45
2022-09-20T00:51:51.426Z,1.30
2022-09-20T00:54:20.809Z,0.88
2022-09-20T00:56:48.699Z,1.17
2022-09-20T00:59:32.606Z,1.10
2022-09-20T01:02:06.805Z,1.40
2022-09-20T01:04:35.074Z,1.58
2022-09-20T01:07:05.040Z,1.10
2022-09-20T01:09:31.788Z,1.30
2022-09-20T01:12:02.375Z,1.35
2022-09-20T01:14:29.328Z,1.33
2022-09-20T01:17:00.799Z,1.20
2022-09-20T01:19:39.876Z,1.38
2022-09-20T01:22:17.185Z,1.17
2022-09-20T01:24:58.913Z,1.30
2022-09-20T01:27:43.621Z,1.08
2022-09-20T01:30:18.380Z,1.02
2022-09-20T01:32:51.287Z,1.40
2022-09-20T01:35:21.296Z,1.40
2022-09-20T01:38:06.192Z,1.35
2022-09-20T01:40:38.881Z,1.50
2022-09-20T01:43:47.004Z,1.10
2022-09-20T01:46:34.268Z,1.33
2022-09-20T01:49:16.239Z,1.20
2022-09-20T01:51:48.816Z,1.00
2022-09-20T01:54:46.666Z,1.10
2022-09-20T01:57:31.804Z,1.20
2022-09-20T02:00:07.569Z,1.10
2022-09-20T02:03:07.312Z,1.00
2022-09-20T02:05:49.156Z,1.27
2022-09-20T02:08:36.991Z,1.00
2022-09-20T02:11:12.920Z,0.95
2022-09-20T02:13:39.810Z,1.25
2022-09-20T02:16:24.626Z,0.82
2022-09-20T02:19:03.476Z,0.90
2022-09-20T02:21:48.029Z,0.93
2022-09-20T02:24:39.078Z,0.75
2022-09-20T02:27:17.627Z,0.90
2022-09-20T02:30:18.722Z,1.00
2022-09-20T02:32:45.332Z,0.90
2022-09-20T02:35:34.199Z,0.90
2022-09-20T02:38:35.714Z,0.93
2022-09-20T02:41:08.196Z,1.00
2022-09-20T02:44:09.470Z,0.93
2022-09-20T02:46:53.355Z,1.13
2022-09-20T02:49:48.289Z,0.90
2022-09-20T02:52:29.509Z,0.73
2022-09-20T02:55:18.217Z,0.75
2022-09-20T02:58:25.860Z,1.08
2022-09-20T03:01:05.493Z,1.00
2022-09-20T03:03:46.388Z,1.20
2022-09-20T03:06:27.457Z,1.02
2022-09-20T03:09:25.150Z,0.80
2022-09-20T03:12:04.358Z,1.02
2022-09-20T03:14:42.502Z,1.00
2022-09-20T03:17:36.591Z,0.98
2022-09-20T03:20:21.788Z,1.23
2022-09-20T03:23:06.171Z,1.20
2022-09-20T03:25:58.817Z,1.02
2022-09-20T03:28:48.051Z,1.05
2022-09-20T03:31:37.381Z,1.30
2022-09-20T03:34:32.656Z,1.90
2022-09-20T03:37:28.616Z,3.17
2022-09-20T03:40:17.825Z,5.85
2022-09-20T03:42:48.678Z,6.70
2022-09-20T03:45:54.266Z,7.57
2022-09-20T03:48:39.974Z,8.70
2022-09-20T03:51:23.727Z,7.10
2022-09-20T03:53:51.161Z,6.40
2022-09-20T03:56:20.857Z,5.82
2022-09-20T03:59:08.471Z,5.90
2022-09-20T04:01:41.431Z,6.00
2022-09-20T04:04:33.126Z,6.28
2022-09-20T04:07:23.570Z,4.97
2022-09-20T04:10:01.224Z,6.28
2022-09-20T04:12:53.024Z,5.90
2022-09-20T04:15:43.220Z,5.65
2022-09-20T04:18:23.459Z,5.80
2022-09-20T04:21:28.289Z,5.63
2022-09-20T04:24:04.271Z,5.70
2022-09-20T04:26:36.562Z,5.97
2022-09-20T04:29:23.545Z,4.90
2022-09-20T04:32:14.368Z,5.45
2022-09-20T04:35:12.861Z,5.28
2022-09-20T04:37:41.970Z,5.57
2022-09-20T04:40:37.667Z,5.13
2022-09-20T04:43:43.295Z,4.88
2022-09-20T04:46:38.365Z,4.80
2022-09-20T04:49:33.727Z,4.93
2022-09-20T04:52:17.553Z,4.82
2022-09-20T04:55:19.596Z,4.32
2022-09-20T04:58:17.037Z,3.90
2022-09-20T05:00:46.465Z,4.65
2022-09-20T05:03:34.942Z,4.90
2022-09-20T05:06:44.402Z,4.50
2022-09-20T05:09:13.583Z,4.80
2022-09-20T05:12:17.673Z,4.80
2022-09-20T05:15:10.987Z,4.60
2022-09-20T05:18:10.780Z,4.38
2022-09-20T05:20:59.421Z,4.30
2022-09-20T05:23:35.172Z,4.40
2022-09-20T05:26:19.047Z,3.90
2022-09-20T05:28:57.962Z,4.32
2022-09-20T05:32:06.824Z,4.95
2022-09-20T05:34:56.955Z,4.53
2022-09-20T05:37:49.781Z,3.60
2022-09-20T05:40:19.542Z,3.75
2022-09-20T05:43:12.806Z,4.22
2022-09-20T05:46:04.240Z,3.70
2022-09-20T05:48:49.780Z,3.92
2022-09-20T05:51:54.240Z,4.75
2022-09-20T05:54:57.856Z,4.10
2022-09-20T05:57:33.433Z,5.35
2022-09-20T06:02:48.516Z,4.60
2022-09-20T06:05:42.691Z,4.32
2022-09-20T06:08:35.654Z,3.97
2022-09-20T06:11:39.769Z,4.57
2022-09-20T06:14:30.130Z,4.45
2022-09-20T06:17:13.928Z,4.22
2022-09-20T06:19:46.891Z,4.32
2022-09-20T06:22:23.432Z,3.95
2022-09-20T06:25:16.141Z,3.63
2022-09-20T06:27:49.324Z,3.97
2022-09-20T06:30:20.958Z,3.13
2022-09-20T06:32:55.671Z,3.63
2022-09-20T06:35:27.884Z,3.40
2022-09-20T06:38:44.879Z,3.33
2022-09-20T06:41:28.337Z,3.60
2022-09-20T06:43:58.661Z,3.28
2022-09-20T06:46:28.092Z,3.83
2022-09-20T06:48:55.652Z,3.50
2022-09-20T06:51:23.452Z,2.83
2022-09-20T06:53:50.423Z,3.03
2022-09-20T06:56:20.525Z,2.92
2022-09-20T06:58:47.245Z,2.63
2022-09-20T07:01:14.057Z,2.58
2022-09-20T07:03:42.309Z,2.20
2022-09-20T07:06:10.097Z,3.05
2022-09-20T07:08:37.264Z,1.85
2022-09-20T07:11:10.683Z,1.83
2022-09-20T07:13:37.524Z,1.40
2022-09-20T07:16:06.566Z,2.38
2022-09-20T07:18:34.602Z,1.90
2022-09-20T07:21:01.731Z,1.70
2022-09-20T07:23:32.508Z,1.75
2022-09-20T07:26:00.655Z,1.80
2022-09-20T07:28:28.908Z,1.73
2022-09-20T07:30:55.618Z,2.20
2022-09-20T07:33:23.171Z,1.67
2022-09-20T07:35:50.419Z,1.80
2022-09-20T07:38:17.550Z,2.10
2022-09-20T07:40:46.200Z,1.77
2022-09-20T07:43:13.079Z,1.67
2022-09-20T07:45:39.912Z,1.70
2022-09-20T07:48:09.645Z,1.48
2022-09-20T07:50:36.927Z,1.45
2022-09-20T07:53:04.857Z,1.52
2022-09-20T07:55:32.801Z,1.60
2022-09-20T07:57:59.870Z,1.65
2022-09-20T08:00:26.958Z,1.30
2022-09-20T08:03:00.515Z,1.20
2022-09-20T08:05:28.624Z,1.17
2022-09-20T08:07:56.246Z,1.00
2022-09-20T08:10:23.968Z,1.15
2022-09-20T08:15:38.167Z,1.02
2022-09-20T08:18:08.624Z,0.90
2022-09-20T08:20:39.587Z,1.13
2022-09-20T08:23:23.077Z,1.00
2022-09-20T08:25:50.734Z,1.13
2022-09-20T08:28:17.646Z,1.10
2022-09-20T08:30:44.765Z,1.20
2022-09-20T08:33:14.947Z,1.10
2022-09-20T08:35:42.394Z,1.20
2022-09-20T08:41:00.528Z,1.10
2022-09-20T08:43:32.555Z,1.13
2022-09-20T08:46:05.556Z,0.98
2022-09-20T08:48:34.041Z,0.90
2022-09-20T08:51:08.261Z,1.23
2022-09-20T08:53:35.534Z,1.00
2022-09-20T08:56:04.724Z,0.82
2022-09-20T08:58:32.288Z,1.10
2022-09-20T09:01:00.315Z,1.00
2022-09-20T09:03:28.649Z,1.35
2022-09-20T09:05:58.278Z,0.90
2022-09-20T09:08:37.913Z,0.80
2022-09-20T09:11:17.374Z,1.10
2022-09-20T09:14:27.518Z,1.27
2022-09-20T09:16:55.208Z,0.85
2022-09-20T09:19:34.523Z,1.48
2022-09-20T09:22:04.515Z,2.05
2022-09-20T09:24:31.565Z,1.15
2022-09-20T09:27:16.723Z,1.05
2022-09-20T09:29:52.561Z,1.07
2022-09-20T09:32:23.558Z,1.00
2022-09-20T09:34:50.820Z,0.90
2022-09-20T09:37:31.169Z,0.90
2022-09-20T09:40:06.955Z,0.90
2022-09-20T09:42:34.194Z,0.90
2022-09-20T09:45:28.352Z,1.10
2022-09-20T09:47:59.317Z,1.35
2022-09-20T09:50:30.559Z,1.40
2022-09-20T09:53:13.840Z,1.20
2022-09-20T09:56:04.470Z,1.05
2022-09-20T09:59:04.492Z,0.93
2022-09-20T10:01:39.812Z,1.02
2022-09-20T10:04:24.771Z,1.20
2022-09-20T10:07:07.764Z,1.08
2022-09-20T10:10:03.693Z,1.55
2022-09-20T10:12:49.117Z,1.08
2022-09-20T10:15:25.497Z,1.20
2022-09-20T10:18:08.692Z,1.30
2022-09-20T10:20:53.206Z,1.20
2022-09-20T10:23:51.403Z,1.15
2022-09-20T10:26:52.904Z,1.40
2022-09-20T10:29:38.180Z,1.00
2022-09-20T10:32:23.775Z,1.30
2022-09-20T10:35:00.217Z,1.20
2022-09-20T10:37:49.085Z,1.10
2022-09-20T10:40:16.336Z,1.10
2022-09-20T10:43:15.743Z,1.50
2022-09-20T10:46:30.973Z,1.42
2022-09-20T10:49:04.953Z,1.38
2022-09-20T10:51:52.999Z,1.20
2022-09-20T10:54:50.116Z,1.20
2022-09-20T10:57:19.728Z,1.13
2022-09-20T11:00:18.976Z,1.27
2022-09-20T11:03:18.322Z,1.20
2022-09-20T11:06:24.730Z,1.00
2022-09-20T11:08:57.349Z,1.15
2022-09-20T11:11:32.761Z,1.00
2022-09-20T11:14:06.249Z,1.15
2022-09-20T11:16:54.868Z,1.20
2022-09-20T11:19:50.785Z,1.00
2022-09-20T11:22:34.776Z,1.23
2022-09-20T11:25:18.154Z,1.20
2022-09-20T11:27:53.276Z,1.27
2022-09-20T11:30:22.033Z,1.58
2022-09-20T11:33:04.753Z,1.30
2022-09-20T11:35:40.501Z,1.50
2022-09-20T11:38:11.264Z,1.05
2022-09-20T11:40:46.370Z,0.90
2022-09-20T11:45:43.127Z,1.20
2022-09-20T11:48:16.273Z,1.30
2022-09-20T11:51:08.776Z,1.33
2022-09-20T11:53:58.042Z,1.25
2022-09-20T11:56:35.993Z,1.13
2022-09-20T11:59:05.812Z,1.13
2022-09-20T12:01:36.878Z,1.27
2022-09-20T12:07:18.079Z,1.45
2022-09-20T12:10:01.582Z,1.75
2022-09-20T12:12:45.573Z,1.80
2022-09-20T12:15:29.024Z,1.17
2022-09-20T12:17:59.148Z,1.10
2022-09-20T12:20:47.580Z,1.50
2022-09-20T12:23:45.928Z,1.33
2022-09-20T12:26:21.975Z,1.17
2022-09-20T12:29:05.454Z,1.35
2022-09-20T12:31:32.463Z,1.25
2022-09-20T12:34:04.269Z,1.20
2022-09-20T12:36:38.834Z,1.30
2022-09-20T12:39:22.414Z,1.33
2022-09-20T12:42:03.853Z,1.20
2022-09-20T12:44:47.311Z,1.17
2022-09-20T12:47:14.777Z,1.30
2022-09-20T12:50:06.679Z,1.20
2022-09-20T12:52:52.439Z,1.10
2022-09-20T12:55:46.395Z,1.75
2022-09-20T12:58:16.276Z,1.02
2022-09-20T13:01:14.626Z,1.30
2022-09-20T13:03:49.945Z,1.30
2022-09-20T13:06:19.688Z,1.00
2022-09-20T13:09:04.497Z,1.10
2022-09-20T13:14:24.758Z,1.65
2022-09-20T13:16:54.336Z,1.60
2022-09-20T13:19:38.286Z,1.52
2022-09-20T13:22:18.303Z,1.70
2022-09-20T13:24:48.122Z,1.27
2022-09-20T13:27:19.342Z,1.60
2022-09-20T13:29:46.446Z,1.25
2022-09-20T13:32:26.661Z,1.48
2022-09-20T13:35:24.700Z,1.20
2022-09-20T13:38:00.872Z,1.58
2022-09-20T13:40:44.993Z,1.50
2022-09-20T13:43:40.719Z,1.30
2022-09-20T13:46:17.203Z,1.00
2022-09-20T13:48:47.581Z,1.30
2022-09-20T13:51:23.184Z,1.30
2022-09-20T13:53:49.981Z,1.50
2022-09-20T13:56:28.695Z,1.58
2022-09-20T13:58:58.932Z,1.90
2022-09-20T14:01:32.866Z,2.00
2022-09-20T14:04:16.108Z,1.48
2022-09-20T14:06:43.467Z,1.50
2022-09-20T14:09:34.280Z,1.38
2022-09-20T14:12:03.351Z,1.55
2022-09-20T14:14:31.827Z,1.80
2022-09-20T14:17:02.208Z,1.83
2022-09-20T14:19:37.299Z,1.70
2022-09-20T14:22:05.350Z,1.75
2022-09-20T14:24:37.542Z,1.67
2022-09-20T14:27:22.693Z,1.85
2022-09-20T14:29:53.752Z,1.70
2022-09-20T14:32:25.218Z,1.65
2022-09-20T14:35:11.499Z,2.33
2022-09-20T14:37:43.610Z,1.92
2022-09-20T14:40:30.915Z,1.45
2022-09-20T14:43:06.873Z,1.70
2022-09-20T14:45:36.588Z,2.15
2022-09-20T14:48:11.008Z,2.00
2022-09-20T14:50:46.031Z,1.73
2022-09-20T14:53:13.399Z,2.00
2022-09-20T14:55:57.720Z,2.00
2022-09-20T14:58:26.278Z,1.98
2022-09-20T15:01:05.181Z,1.77
2022-09-20T15:03:40.176Z,1.88
2022-09-20T15:06:11.142Z,2.53
2022-09-20T15:08:41.673Z,2.22
2022-09-20T15:11:15.266Z,1.73
2022-09-20T15:13:42.241Z,1.92
2022-09-20T15:16:10.735Z,2.00
2022-09-20T15:18:41.597Z,2.08
2022-09-20T15:21:10.919Z,1.75
2022-09-20T15:23:39.285Z,2.20
2022-09-20T15:26:07.348Z,2.03
2022-09-20T15:28:35.194Z,1.60
2022-09-20T15:31:02.244Z,1.90
2022-09-20T15:33:31.415Z,1.60
2022-09-20T15:35:59.125Z,1.50
2022-09-20T15:38:27.076Z,1.50
2022-09-20T15:40:54.368Z,1.33
2022-09-20T15:43:24.203Z,1.77
2022-09-20T15:45:56.702Z,1.48
2022-09-20T15:48:25.700Z,1.50
2022-09-20T15:51:04.087Z,1.73
2022-09-20T15:53:33.601Z,1.60
2022-09-20T15:56:02.459Z,1.67
2022-09-20T15:58:35.614Z,1.60
2022-09-20T16:01:07.967Z,1.40
2022-09-20T16:03:36.153Z,1.55
2022-09-20T16:06:06.385Z,1.20
2022-09-20T16:08:34.826Z,1.20
2022-09-20T16:11:02.318Z,1.48
2022-09-20T16:13:29.427Z,1.63
2022-09-20T16:16:01.204Z,1.30
2022-09-20T16:18:47.808Z,1.60
2022-09-20T16:21:17.154Z,1.70
2022-09-20T16:23:49.964Z,1.40
2022-09-20T16:26:17.734Z,2.00
2022-09-20T16:28:55.792Z,2.13
2022-09-20T16:31:39.984Z,1.65
2022-09-20T16:34:21.189Z,1.70
2022-09-20T16:36:54.232Z,1.83
2022-09-20T16:39:25.144Z,1.70
2022-09-20T16:41:53.038Z,1.48
2022-09-20T16:44:19.796Z,1.40
2022-09-20T16:46:47.221Z,1.30
2022-09-20T16:49:14.152Z,1.48
2022-09-20T16:51:42.781Z,1.60
2022-09-20T16:54:12.595Z,2.22
2022-09-20T16:56:42.235Z,1.65
2022-09-20T16:59:09.352Z,1.77
2022-09-20T17:01:37.035Z,1.88
2022-09-20T17:04:08.257Z,2.03
2022-09-20T17:06:37.747Z,1.77
2022-09-20T17:09:06.056Z,1.63
2022-09-20T17:11:49.064Z,1.80
2022-09-20T17:14:17.742Z,2.05
2022-09-20T17:16:48.122Z,1.98
2022-09-20T17:19:18.608Z,1.73
2022-09-20T17:21:49.863Z,2.13
2022-09-20T17:24:21.463Z,2.25
2022-09-20T17:26:50.231Z,2.38
2022-09-20T17:29:18.624Z,1.88
2022-09-20T17:31:53.943Z,1.75
2022-09-20T17:34:21.765Z,1.70
2022-09-20T17:36:50.289Z,2.20
2022-09-20T17:39:17.693Z,1.77
2022-09-20T17:41:46.845Z,1.83
2022-09-20T17:44:14.819Z,1.77
2022-09-20T17:46:43.757Z,2.10
2022-09-20T17:49:13.050Z,1.80
2022-09-20T17:51:45.303Z,1.90
2022-09-20T17:54:15.645Z,1.40
2022-09-20T17:56:43.980Z,1.80
2022-09-20T17:59:12.146Z,2.10
2022-09-20T18:01:40.280Z,1.60
2022-09-20T18:04:07.890Z,1.88
2022-09-20T18:06:42.276Z,1.70
2022-09-20T18:09:11.662Z,1.65
2022-09-20T18:11:46.658Z,1.83
2022-09-20T18:14:13.466Z,1.98
2022-09-20T18:16:40.493Z,2.00
2022-09-20T18:19:08.770Z,1.83
2022-09-20T18:21:37.558Z,1.90
2022-09-20T18:24:09.906Z,2.08
2022-09-20T18:26:38.012Z,1.85
2022-09-20T18:29:08.027Z,2.03
2022-09-20T18:31:42.206Z,1.80
2022-09-20T18:34:18.095Z,2.05
2022-09-20T18:36:48.554Z,2.58
2022-09-20T18:39:15.280Z,2.20
2022-09-20T18:41:44.656Z,2.10
2022-09-20T18:44:15.218Z,2.10
2022-09-20T18:46:41.951Z,2.70
2022-09-20T18:49:10.656Z,2.30
2022-09-20T18:51:39.992Z,2.35
2022-09-20T18:54:11.577Z,1.80
2022-09-20T18:56:43.766Z,2.03
2022-09-20T18:59:14.982Z,2.20
2022-09-20T19:01:50.884Z,2.63
2022-09-20T19:04:36.693Z,2.50
2022-09-20T19:07:29.131Z,2.03
2022-09-20T19:10:26.661Z,2.60
2022-09-20T19:13:17.151Z,2.65
2022-09-20T19:15:43.842Z,2.45
2022-09-20T19:18:25.916Z,2.67
2022-09-20T19:21:27.469Z,3.25
2022-09-20T19:24:03.325Z,2.85
2022-09-20T19:26:32.315Z,3.17
2022-09-20T19:29:00.675Z,2.92
2022-09-20T19:31:30.892Z,2.60
2022-09-20T19:33:59.946Z,3.67
2022-09-20T19:36:49.177Z,3.25
2022-09-20T19:39:36.698Z,3.42
2022-09-20T19:42:24.865Z,3.40
2022-09-20T19:45:19.960Z,3.65
2022-09-20T19:47:55.288Z,4.20
2022-09-20T19:50:40.242Z,4.13
2022-09-20T19:53:10.173Z,4.18
2022-09-20T19:55:38.263Z,3.83
2022-09-20T19:58:05.911Z,3.88
2022-09-20T20:00:33.633Z,4.32
2022-09-20T20:03:01.302Z,4.13
2022-09-20T20:05:29.451Z,4.78
2022-09-20T20:08:16.210Z,4.50
2022-09-20T20:11:01.303Z,4.15
2022-09-20T20:14:00.018Z,4.20
2022-09-20T20:16:48.978Z,3.70
2022-09-20T20:20:05.579Z,3.70
2022-09-20T20:22:51.284Z,4.10
2022-09-20T20:25:48.011Z,3.88
2022-09-20T20:28:14.769Z,3.80
2022-09-20T20:30:41.649Z,4.03
2022-09-20T20:33:13.793Z,3.85
2022-09-20T20:35:40.609Z,4.45
2022-09-20T20:38:10.424Z,3.90
2022-09-20T20:40:37.854Z,4.55
2022-09-20T20:43:06.118Z,4.30
2022-09-20T20:45:32.993Z,4.78
2022-09-20T20:48:00.361Z,4.07
2022-09-20T20:50:29.325Z,4.38
2022-09-20T20:52:57.094Z,4.25
2022-09-20T20:55:24.984Z,5.03
2022-09-20T20:57:57.319Z,4.60
2022-09-20T21:00:26.307Z,4.72
2022-09-20T21:03:01.171Z,5.55
2022-09-20T21:05:29.429Z,5.05
2022-09-20T21:07:56.370Z,5.18
2022-09-20T21:10:23.688Z,4.72
2022-09-20T21:12:54.153Z,5.30
2022-09-20T21:15:21.399Z,5.50
2022-09-20T21:17:52.650Z,5.13
2022-09-20T21:20:21.327Z,5.47
2022-09-20T21:22:48.049Z,4.95
2022-09-20T21:25:14.917Z,5.88
2022-09-20T21:27:42.104Z,4.97
2022-09-20T21:30:09.309Z,5.50
2022-09-20T21:32:36.546Z,5.75
2022-09-20T21:35:03.513Z,5.53
2022-09-20T21:37:30.533Z,5.90
2022-09-20T21:39:57.210Z,5.32
2022-09-20T21:42:25.528Z,4.85
2022-09-20T21:44:52.972Z,5.72
2022-09-20T21:47:20.561Z,5.72
2022-09-20T21:49:50.132Z,5.25
2022-09-20T21:52:16.816Z,5.72
2022-09-20T21:54:45.723Z,4.90
2022-09-20T21:57:13.813Z,4.72
2022-09-20T21:59:40.647Z,4.45
2022-09-20T22:02:07.425Z,5.78
2022-09-20T22:04:34.246Z,4.85
2022-09-20T22:07:03.896Z,4.90
2022-09-20T22:09:30.762Z,4.60
2022-09-20T22:11:57.745Z,4.38
2022-09-20T22:14:24.628Z,3.90
2022-09-20T22:16:51.487Z,4.63
2022-09-20T22:19:19.094Z,4.32
2022-09-20T22:21:48.235Z,3.85
2022-09-20T22:24:16.131Z,4.03
2022-09-20T22:26:48.433Z,4.22
2022-09-20T22:29:16.044Z,4.35
2022-09-20T22:31:45.526Z,6.05
2022-09-20T22:34:20.477Z,3.75
2022-09-20T22:36:47.672Z,3.60
2022-09-20T22:39:14.642Z,4.18
2022-09-20T22:41:42.577Z,3.25
2022-09-20T22:44:09.647Z,3.35
2022-09-20T22:46:36.474Z,3.00
2022-09-20T22:49:05.814Z,3.42
2022-09-20T22:51:33.580Z,3.63
2022-09-20T22:54:04.571Z,3.63
2022-09-20T22:56:31.903Z,3.15
2022-09-20T22:59:05.818Z,3.38
2022-09-20T23:01:35.669Z,3.35
2022-09-20T23:04:04.379Z,3.50
2022-09-20T23:06:34.358Z,3.25
2022-09-20T23:09:03.317Z,2.90
2022-09-20T23:11:30.439Z,2.65
2022-09-20T23:14:03.330Z,3.03
2022-09-20T23:16:31.593Z,3.47
2022-09-20T23:19:00.224Z,3.50
2022-09-20T23:21:28.479Z,2.90
2022-09-20T23:23:57.046Z,3.00
2022-09-20T23:26:25.431Z,2.72
2022-09-20T23:28:54.473Z,3.00
2022-09-20T23:31:21.685Z,2.75
2022-09-20T23:33:53.913Z,2.70
2022-09-20T23:36:21.469Z,3.17
2022-09-20T23:38:48.697Z,2.42
2022-09-20T23:41:18.477Z,2.65
2022-09-20T23:43:45.603Z,2.67
2022-09-20T23:46:14.143Z,2.78
2022-09-20T23:48:41.939Z,2.30
2022-09-20T23:51:11.276Z,2.40
2022-09-20T23:53:38.738Z,2.00
2022-09-20T23:56:06.586Z,2.00
2022-09-20T23:58:36.203Z,2.55
